Hillsboro, Ohio
Current Conditions -  °F | °C
As of 5:54 PM on Thursday 20 Nov 2014 (Local Time) from KILN Reporting Station
Clear Clear  
Wind Chill: 16°   Ceiling: Unl
Heat Index: 25°   Visibility: 10mi
Dew Point: 13°   Wind: 9mph
Humidity: 60%   Direction: 240°WSW
Pressure: 30.12"   Gusts: NA
Location:  39.2°N, 83.61°W
Report Text: KILN 202254Z AUTO 24008KT 10SM CLR M04/M11 A3012 RMK AO2 SLP234 T10391106
Loading
Personal Weather Stations






























Interactive Weather Map New forecast layout! Learn more

10-Day Weather Forecast

Advertisements
Track Severe Weather on mobile